sensor_id;sensor_type;location;lat;lon;timestamp;P1;durP1;ratioP1;P2;durP2;ratioP2
34134;SDS011;20410;55.578;12.968;2024-01-30T00:01:49;13.03;;;11.73;;
34134;SDS011;20410;55.578;12.968;2024-01-30T00:04:15;13.03;;;11.53;;
34134;SDS011;20410;55.578;12.968;2024-01-30T00:06:41;11.90;;;10.60;;
34134;SDS011;20410;55.578;12.968;2024-01-30T00:09:07;12.10;;;10.80;;
34134;SDS011;20410;55.578;12.968;2024-01-30T00:11:34;13.10;;;11.00;;
34134;SDS011;20410;55.578;12.968;2024-01-30T00:13:59;13.57;;;11.97;;
34134;SDS011;20410;55.578;12.968;2024-01-30T00:16:25;15.47;;;11.33;;
34134;SDS011;20410;55.578;12.968;2024-01-30T00:18:52;12.47;;;11.00;;
34134;SDS011;20410;55.578;12.968;2024-01-30T00:21:17;14.47;;;11.50;;
34134;SDS011;20410;55.578;12.968;2024-01-30T00:23:43;11.77;;;10.47;;
34134;SDS011;20410;55.578;12.968;2024-01-30T00:26:09;12.90;;;11.43;;
34134;SDS011;20410;55.578;12.968;2024-01-30T00:28:36;12.47;;;11.17;;
34134;SDS011;20410;55.578;12.968;2024-01-30T00:31:04;16.07;;;12.60;;
34134;SDS011;20410;55.578;12.968;2024-01-30T00:33:30;14.73;;;13.20;;
34134;SDS011;20410;55.578;12.968;2024-01-30T00:35:56;16.47;;;14.03;;
34134;SDS011;20410;55.578;12.968;2024-01-30T00:38:21;21.13;;;14.47;;
34134;SDS011;20410;55.578;12.968;2024-01-30T00:40:47;26.93;;;16.43;;
34134;SDS011;20410;55.578;12.968;2024-01-30T00:43:13;30.53;;;18.27;;
34134;SDS011;20410;55.578;12.968;2024-01-30T00:45:39;37.20;;;20.57;;
34134;SDS011;20410;55.578;12.968;2024-01-30T00:48:04;37.27;;;21.50;;
34134;SDS011;20410;55.578;12.968;2024-01-30T00:50:30;38.27;;;21.60;;
34134;SDS011;20410;55.578;12.968;2024-01-30T00:52:56;47.03;;;22.93;;
34134;SDS011;20410;55.578;12.968;2024-01-30T00:55:21;37.13;;;21.23;;
34134;SDS011;20410;55.578;12.968;2024-01-30T00:57:47;51.03;;;24.53;;
34134;SDS011;20410;55.578;12.968;2024-01-30T01:00:13;38.43;;;22.13;;
34134;SDS011;20410;55.578;12.968;2024-01-30T01:02:42;51.97;;;26.07;;
34134;SDS011;20410;55.578;12.968;2024-01-30T01:05:07;47.07;;;23.83;;
34134;SDS011;20410;55.578;12.968;2024-01-30T01:07:33;53.57;;;26.37;;
34134;SDS011;20410;55.578;12.968;2024-01-30T01:09:59;81.43;;;31.33;;
34134;SDS011;20410;55.578;12.968;2024-01-30T01:12:24;46.83;;;27.77;;
34134;SDS011;20410;55.578;12.968;2024-01-30T01:14:50;58.03;;;28.70;;
34134;SDS011;20410;55.578;12.968;2024-01-30T01:17:16;74.50;;;32.50;;
34134;SDS011;20410;55.578;12.968;2024-01-30T01:19:43;87.97;;;36.50;;
34134;SDS011;20410;55.578;12.968;2024-01-30T01:22:09;74.07;;;33.77;;
34134;SDS011;20410;55.578;12.968;2024-01-30T01:24:35;68.10;;;34.17;;
34134;SDS011;20410;55.578;12.968;2024-01-30T01:27:00;84.60;;;36.67;;
34134;SDS011;20410;55.578;12.968;2024-01-30T01:29:26;63.30;;;30.93;;
34134;SDS011;20410;55.578;12.968;2024-01-30T01:31:56;59.83;;;27.33;;
34134;SDS011;20410;55.578;12.968;2024-01-30T01:34:22;54.47;;;25.97;;
34134;SDS011;20410;55.578;12.968;2024-01-30T01:36:48;64.60;;;29.43;;
34134;SDS011;20410;55.578;12.968;2024-01-30T01:39:14;54.63;;;26.70;;
34134;SDS011;20410;55.578;12.968;2024-01-30T01:41:40;65.10;;;28.03;;
34134;SDS011;20410;55.578;12.968;2024-01-30T01:44:06;70.57;;;28.17;;
34134;SDS011;20410;55.578;12.968;2024-01-30T01:46:32;58.07;;;27.77;;
34134;SDS011;20410;55.578;12.968;2024-01-30T01:48:59;81.60;;;29.57;;
34134;SDS011;20410;55.578;12.968;2024-01-30T01:51:27;106.30;;;35.37;;
34134;SDS011;20410;55.578;12.968;2024-01-30T01:53:54;59.30;;;28.67;;
34134;SDS011;20410;55.578;12.968;2024-01-30T01:56:22;58.13;;;27.13;;
34134;SDS011;20410;55.578;12.968;2024-01-30T01:58:48;66.17;;;33.00;;
34134;SDS011;20410;55.578;12.968;2024-01-30T02:01:16;62.53;;;29.67;;
34134;SDS011;20410;55.578;12.968;2024-01-30T02:03:45;66.93;;;32.90;;
34134;SDS011;20410;55.578;12.968;2024-01-30T02:06:11;75.33;;;35.60;;
34134;SDS011;20410;55.578;12.968;2024-01-30T02:08:38;59.83;;;31.30;;
34134;SDS011;20410;55.578;12.968;2024-01-30T02:11:04;66.30;;;33.73;;
34134;SDS011;20410;55.578;12.968;2024-01-30T02:13:30;93.30;;;35.17;;
34134;SDS011;20410;55.578;12.968;2024-01-30T02:15:55;64.30;;;33.60;;
34134;SDS011;20410;55.578;12.968;2024-01-30T02:18:22;66.83;;;32.83;;
34134;SDS011;20410;55.578;12.968;2024-01-30T02:20:47;72.13;;;33.67;;
34134;SDS011;20410;55.578;12.968;2024-01-30T02:23:15;81.20;;;35.30;;
34134;SDS011;20410;55.578;12.968;2024-01-30T02:25:41;73.90;;;34.80;;
34134;SDS011;20410;55.578;12.968;2024-01-30T02:28:13;80.00;;;36.67;;
34134;SDS011;20410;55.578;12.968;2024-01-30T02:30:39;72.07;;;34.53;;
34134;SDS011;20410;55.578;12.968;2024-01-30T02:33:05;85.07;;;36.23;;
34134;SDS011;20410;55.578;12.968;2024-01-30T02:35:31;97.20;;;38.27;;
34134;SDS011;20410;55.578;12.968;2024-01-30T02:37:57;83.53;;;37.67;;
34134;SDS011;20410;55.578;12.968;2024-01-30T02:40:22;95.67;;;39.07;;
34134;SDS011;20410;55.578;12.968;2024-01-30T02:42:48;92.00;;;37.63;;
34134;SDS011;20410;55.578;12.968;2024-01-30T02:45:13;104.60;;;39.03;;
34134;SDS011;20410;55.578;12.968;2024-01-30T02:47:40;82.73;;;38.97;;
34134;SDS011;20410;55.578;12.968;2024-01-30T02:50:05;108.13;;;40.77;;
34134;SDS011;20410;55.578;12.968;2024-01-30T02:52:31;101.63;;;39.53;;
34134;SDS011;20410;55.578;12.968;2024-01-30T02:54:57;91.73;;;37.47;;
34134;SDS011;20410;55.578;12.968;2024-01-30T02:57:23;92.10;;;38.20;;
34134;SDS011;20410;55.578;12.968;2024-01-30T02:59:48;70.80;;;35.50;;
34134;SDS011;20410;55.578;12.968;2024-01-30T03:02:14;79.27;;;36.27;;
34134;SDS011;20410;55.578;12.968;2024-01-30T03:04:43;63.97;;;33.37;;
34134;SDS011;20410;55.578;12.968;2024-01-30T03:07:09;109.33;;;39.40;;
34134;SDS011;20410;55.578;12.968;2024-01-30T03:09:34;71.40;;;36.20;;
34134;SDS011;20410;55.578;12.968;2024-01-30T03:12:01;76.87;;;36.63;;
34134;SDS011;20410;55.578;12.968;2024-01-30T03:14:28;73.23;;;35.40;;
34134;SDS011;20410;55.578;12.968;2024-01-30T03:16:55;66.33;;;32.30;;
34134;SDS011;20410;55.578;12.968;2024-01-30T03:19:21;65.60;;;30.93;;
34134;SDS011;20410;55.578;12.968;2024-01-30T03:21:46;55.73;;;28.30;;
34134;SDS011;20410;55.578;12.968;2024-01-30T03:24:12;51.40;;;27.33;;
34134;SDS011;20410;55.578;12.968;2024-01-30T03:26:38;69.50;;;30.27;;
34134;SDS011;20410;55.578;12.968;2024-01-30T03:29:03;79.13;;;31.77;;
34134;SDS011;20410;55.578;12.968;2024-01-30T03:31:29;112.67;;;32.10;;
34134;SDS011;20410;55.578;12.968;2024-01-30T03:33:54;84.10;;;29.93;;
34134;SDS011;20410;55.578;12.968;2024-01-30T03:36:20;79.40;;;29.40;;
34134;SDS011;20410;55.578;12.968;2024-01-30T03:38:45;76.77;;;30.23;;
34134;SDS011;20410;55.578;12.968;2024-01-30T03:41:11;95.60;;;30.10;;
34134;SDS011;20410;55.578;12.968;2024-01-30T03:43:37;89.93;;;30.47;;
34134;SDS011;20410;55.578;12.968;2024-01-30T03:46:02;115.50;;;33.23;;
34134;SDS011;20410;55.578;12.968;2024-01-30T03:48:28;100.03;;;30.23;;
34134;SDS011;20410;55.578;12.968;2024-01-30T03:50:54;87.77;;;30.30;;
34134;SDS011;20410;55.578;12.968;2024-01-30T03:53:20;102.30;;;29.47;;
34134;SDS011;20410;55.578;12.968;2024-01-30T03:55:47;103.10;;;29.70;;
34134;SDS011;20410;55.578;12.968;2024-01-30T03:58:12;104.73;;;31.37;;
34134;SDS011;20410;55.578;12.968;2024-01-30T04:00:38;130.37;;;32.33;;
34134;SDS011;20410;55.578;12.968;2024-01-30T04:03:04;130.47;;;32.20;;
34134;SDS011;20410;55.578;12.968;2024-01-30T04:05:30;129.20;;;34.57;;
34134;SDS011;20410;55.578;12.968;2024-01-30T04:07:55;149.37;;;36.07;;
34134;SDS011;20410;55.578;12.968;2024-01-30T04:10:21;94.90;;;29.70;;
34134;SDS011;20410;55.578;12.968;2024-01-30T04:12:46;71.37;;;31.70;;
34134;SDS011;20410;55.578;12.968;2024-01-30T04:15:12;111.93;;;31.80;;
34134;SDS011;20410;55.578;12.968;2024-01-30T04:17:38;78.80;;;30.53;;
34134;SDS011;20410;55.578;12.968;2024-01-30T04:20:04;81.13;;;29.77;;
34134;SDS011;20410;55.578;12.968;2024-01-30T04:22:31;157.13;;;33.83;;
34134;SDS011;20410;55.578;12.968;2024-01-30T04:24:56;86.00;;;32.07;;
34134;SDS011;20410;55.578;12.968;2024-01-30T04:27:22;148.97;;;32.93;;
34134;SDS011;20410;55.578;12.968;2024-01-30T04:29:47;127.00;;;34.73;;
34134;SDS011;20410;55.578;12.968;2024-01-30T04:32:13;81.80;;;30.97;;
34134;SDS011;20410;55.578;12.968;2024-01-30T04:34:39;64.77;;;28.37;;
34134;SDS011;20410;55.578;12.968;2024-01-30T04:37:04;88.77;;;30.27;;
34134;SDS011;20410;55.578;12.968;2024-01-30T04:39:30;75.83;;;30.00;;
34134;SDS011;20410;55.578;12.968;2024-01-30T04:41:58;84.00;;;31.47;;
34134;SDS011;20410;55.578;12.968;2024-01-30T04:44:24;100.20;;;32.40;;
34134;SDS011;20410;55.578;12.968;2024-01-30T04:46:50;78.70;;;30.37;;
34134;SDS011;20410;55.578;12.968;2024-01-30T04:49:15;143.43;;;31.80;;
34134;SDS011;20410;55.578;12.968;2024-01-30T04:51:41;90.55;;;33.10;;
34134;SDS011;20410;55.578;12.968;2024-01-30T04:54:06;141.43;;;33.93;;
34134;SDS011;20410;55.578;12.968;2024-01-30T04:56:32;110.10;;;31.70;;
34134;SDS011;20410;55.578;12.968;2024-01-30T04:58:57;107.67;;;31.47;;
34134;SDS011;20410;55.578;12.968;2024-01-30T05:01:23;104.47;;;29.07;;
34134;SDS011;20410;55.578;12.968;2024-01-30T05:03:48;164.97;;;30.37;;
34134;SDS011;20410;55.578;12.968;2024-01-30T05:06:23;192.17;;;33.77;;
34134;SDS011;20410;55.578;12.968;2024-01-30T05:08:50;124.87;;;29.53;;
34134;SDS011;20410;55.578;12.968;2024-01-30T05:11:15;136.37;;;31.17;;
34134;SDS011;20410;55.578;12.968;2024-01-30T05:13:41;114.43;;;32.27;;
34134;SDS011;20410;55.578;12.968;2024-01-30T05:16:06;145.13;;;33.60;;
34134;SDS011;20410;55.578;12.968;2024-01-30T05:18:32;109.63;;;28.87;;
34134;SDS011;20410;55.578;12.968;2024-01-30T05:20:58;306.53;;;34.83;;
34134;SDS011;20410;55.578;12.968;2024-01-30T05:23:23;169.23;;;33.50;;
34134;SDS011;20410;55.578;12.968;2024-01-30T05:25:49;492.97;;;42.80;;
34134;SDS011;20410;55.578;12.968;2024-01-30T05:28:14;299.00;;;37.07;;
34134;SDS011;20410;55.578;12.968;2024-01-30T05:30:40;248.73;;;33.23;;
34134;SDS011;20410;55.578;12.968;2024-01-30T05:33:05;190.27;;;35.00;;
34134;SDS011;20410;55.578;12.968;2024-01-30T05:35:31;166.47;;;35.47;;
34134;SDS011;20410;55.578;12.968;2024-01-30T05:37:56;243.87;;;37.37;;
34134;SDS011;20410;55.578;12.968;2024-01-30T05:40:22;206.60;;;35.97;;
34134;SDS011;20410;55.578;12.968;2024-01-30T05:42:48;199.27;;;37.03;;
34134;SDS011;20410;55.578;12.968;2024-01-30T05:45:13;167.80;;;32.23;;
34134;SDS011;20410;55.578;12.968;2024-01-30T05:47:39;234.70;;;35.97;;
34134;SDS011;20410;55.578;12.968;2024-01-30T05:50:05;138.37;;;34.27;;
34134;SDS011;20410;55.578;12.968;2024-01-30T05:52:31;128.43;;;34.33;;
34134;SDS011;20410;55.578;12.968;2024-01-30T05:54:56;737.27;;;52.47;;
34134;SDS011;20410;55.578;12.968;2024-01-30T05:57:22;320.47;;;39.60;;
34134;SDS011;20410;55.578;12.968;2024-01-30T05:59:47;289.43;;;38.77;;
34134;SDS011;20410;55.578;12.968;2024-01-30T06:02:13;225.30;;;38.57;;
34134;SDS011;20410;55.578;12.968;2024-01-30T06:04:39;448.23;;;39.77;;
34134;SDS011;20410;55.578;12.968;2024-01-30T06:07:05;384.90;;;39.83;;
34134;SDS011;20410;55.578;12.968;2024-01-30T06:09:31;592.87;;;47.23;;
34134;SDS011;20410;55.578;12.968;2024-01-30T06:11:57;300.97;;;39.43;;
34134;SDS011;20410;55.578;12.968;2024-01-30T06:14:22;350.57;;;39.37;;
34134;SDS011;20410;55.578;12.968;2024-01-30T06:16:48;446.40;;;42.47;;
34134;SDS011;20410;55.578;12.968;2024-01-30T06:19:14;300.73;;;38.77;;
34134;SDS011;20410;55.578;12.968;2024-01-30T06:21:40;532.23;;;44.07;;
34134;SDS011;20410;55.578;12.968;2024-01-30T06:24:05;327.03;;;40.37;;
34134;SDS011;20410;55.578;12.968;2024-01-30T06:26:31;325.53;;;36.73;;
34134;SDS011;20410;55.578;12.968;2024-01-30T06:28:56;290.30;;;37.97;;
34134;SDS011;20410;55.578;12.968;2024-01-30T06:31:22;554.57;;;44.90;;
34134;SDS011;20410;55.578;12.968;2024-01-30T06:33:48;367.57;;;41.33;;
34134;SDS011;20410;55.578;12.968;2024-01-30T06:36:14;131.90;;;32.93;;
34134;SDS011;20410;55.578;12.968;2024-01-30T06:38:40;144.53;;;35.67;;
34134;SDS011;20410;55.578;12.968;2024-01-30T06:41:06;301.40;;;37.90;;
34134;SDS011;20410;55.578;12.968;2024-01-30T06:43:31;290.83;;;38.73;;
34134;SDS011;20410;55.578;12.968;2024-01-30T06:45:57;196.20;;;36.53;;
34134;SDS011;20410;55.578;12.968;2024-01-30T06:48:22;169.53;;;34.00;;
34134;SDS011;20410;55.578;12.968;2024-01-30T06:50:48;139.80;;;32.40;;
34134;SDS011;20410;55.578;12.968;2024-01-30T06:53:14;222.57;;;35.10;;
34134;SDS011;20410;55.578;12.968;2024-01-30T06:55:40;146.80;;;34.17;;
34134;SDS011;20410;55.578;12.968;2024-01-30T06:58:05;101.70;;;31.13;;
34134;SDS011;20410;55.578;12.968;2024-01-30T07:00:31;149.40;;;32.80;;
34134;SDS011;20410;55.578;12.968;2024-01-30T07:02:57;152.43;;;34.13;;
34134;SDS011;20410;55.578;12.968;2024-01-30T07:05:22;175.20;;;34.20;;
34134;SDS011;20410;55.578;12.968;2024-01-30T07:07:48;274.00;;;35.10;;
34134;SDS011;20410;55.578;12.968;2024-01-30T07:10:13;268.83;;;36.30;;
34134;SDS011;20410;55.578;12.968;2024-01-30T07:12:39;169.00;;;32.17;;
34134;SDS011;20410;55.578;12.968;2024-01-30T07:15:05;138.30;;;33.67;;
34134;SDS011;20410;55.578;12.968;2024-01-30T07:17:34;219.57;;;35.63;;
34134;SDS011;20410;55.578;12.968;2024-01-30T07:20:00;128.50;;;31.63;;
34134;SDS011;20410;55.578;12.968;2024-01-30T07:22:25;153.27;;;32.93;;
34134;SDS011;20410;55.578;12.968;2024-01-30T07:24:51;178.53;;;32.50;;
34134;SDS011;20410;55.578;12.968;2024-01-30T07:27:17;154.53;;;33.60;;
34134;SDS011;20410;55.578;12.968;2024-01-30T07:29:43;172.23;;;34.33;;
34134;SDS011;20410;55.578;12.968;2024-01-30T07:32:08;88.57;;;30.57;;
34134;SDS011;20410;55.578;12.968;2024-01-30T07:34:34;106.10;;;31.70;;
34134;SDS011;20410;55.578;12.968;2024-01-30T07:37:01;144.20;;;32.53;;
34134;SDS011;20410;55.578;12.968;2024-01-30T07:39:27;168.70;;;34.93;;
34134;SDS011;20410;55.578;12.968;2024-01-30T07:41:53;88.50;;;29.97;;
34134;SDS011;20410;55.578;12.968;2024-01-30T07:44:19;105.00;;;29.57;;
34134;SDS011;20410;55.578;12.968;2024-01-30T07:46:45;124.87;;;30.97;;
34134;SDS011;20410;55.578;12.968;2024-01-30T07:49:11;119.60;;;30.53;;
34134;SDS011;20410;55.578;12.968;2024-01-30T07:51:39;130.67;;;30.53;;
34134;SDS011;20410;55.578;12.968;2024-01-30T07:54:10;95.37;;;30.37;;
34134;SDS011;20410;55.578;12.968;2024-01-30T07:56:36;114.67;;;29.43;;
34134;SDS011;20410;55.578;12.968;2024-01-30T07:59:02;141.37;;;30.53;;
34134;SDS011;20410;55.578;12.968;2024-01-30T08:01:27;112.17;;;29.57;;
34134;SDS011;20410;55.578;12.968;2024-01-30T08:03:53;94.17;;;29.57;;
34134;SDS011;20410;55.578;12.968;2024-01-30T08:06:18;196.67;;;33.53;;
34134;SDS011;20410;55.578;12.968;2024-01-30T08:08:44;173.57;;;33.33;;
34134;SDS011;20410;55.578;12.968;2024-01-30T08:11:10;100.70;;;29.07;;
34134;SDS011;20410;55.578;12.968;2024-01-30T08:13:35;132.13;;;30.90;;
34134;SDS011;20410;55.578;12.968;2024-01-30T08:16:01;86.30;;;29.83;;
34134;SDS011;20410;55.578;12.968;2024-01-30T08:18:26;131.97;;;29.20;;
34134;SDS011;20410;55.578;12.968;2024-01-30T08:20:52;129.17;;;30.00;;
34134;SDS011;20410;55.578;12.968;2024-01-30T08:23:17;94.43;;;29.13;;
34134;SDS011;20410;55.578;12.968;2024-01-30T08:25:43;127.10;;;27.63;;
34134;SDS011;20410;55.578;12.968;2024-01-30T08:28:08;80.73;;;26.27;;
34134;SDS011;20410;55.578;12.968;2024-01-30T08:30:34;90.17;;;27.13;;
34134;SDS011;20410;55.578;12.968;2024-01-30T08:33:00;79.03;;;25.73;;
34134;SDS011;20410;55.578;12.968;2024-01-30T08:35:28;105.33;;;27.83;;
34134;SDS011;20410;55.578;12.968;2024-01-30T08:37:56;107.50;;;27.63;;
34134;SDS011;20410;55.578;12.968;2024-01-30T08:40:22;72.43;;;25.30;;
34134;SDS011;20410;55.578;12.968;2024-01-30T08:42:47;90.20;;;25.10;;
34134;SDS011;20410;55.578;12.968;2024-01-30T08:45:13;134.20;;;27.60;;
34134;SDS011;20410;55.578;12.968;2024-01-30T08:47:38;115.27;;;25.07;;
34134;SDS011;20410;55.578;12.968;2024-01-30T08:50:05;124.47;;;24.73;;
34134;SDS011;20410;55.578;12.968;2024-01-30T08:52:31;160.73;;;25.87;;
34134;SDS011;20410;55.578;12.968;2024-01-30T08:54:59;63.63;;;20.37;;
34134;SDS011;20410;55.578;12.968;2024-01-30T08:57:24;78.47;;;21.73;;
34134;SDS011;20410;55.578;12.968;2024-01-30T08:59:53;73.63;;;20.20;;
34134;SDS011;20410;55.578;12.968;2024-01-30T09:02:19;70.43;;;19.50;;
34134;SDS011;20410;55.578;12.968;2024-01-30T09:04:44;111.13;;;22.00;;
34134;SDS011;20410;55.578;12.968;2024-01-30T09:07:10;70.47;;;19.63;;
34134;SDS011;20410;55.578;12.968;2024-01-30T09:09:37;59.30;;;18.10;;
34134;SDS011;20410;55.578;12.968;2024-01-30T09:12:04;61.20;;;18.27;;
34134;SDS011;20410;55.578;12.968;2024-01-30T09:14:32;65.63;;;17.17;;
34134;SDS011;20410;55.578;12.968;2024-01-30T09:16:58;53.13;;;17.53;;
34134;SDS011;20410;55.578;12.968;2024-01-30T09:19:24;54.20;;;16.00;;
34134;SDS011;20410;55.578;12.968;2024-01-30T09:21:49;64.67;;;16.80;;
34134;SDS011;20410;55.578;12.968;2024-01-30T09:24:15;48.07;;;14.73;;
34134;SDS011;20410;55.578;12.968;2024-01-30T09:26:40;72.13;;;15.93;;
34134;SDS011;20410;55.578;12.968;2024-01-30T09:29:06;61.20;;;14.23;;
34134;SDS011;20410;55.578;12.968;2024-01-30T09:31:31;65.63;;;16.10;;
34134;SDS011;20410;55.578;12.968;2024-01-30T09:33:57;76.57;;;16.53;;
34134;SDS011;20410;55.578;12.968;2024-01-30T09:36:22;95.37;;;16.37;;
34134;SDS011;20410;55.578;12.968;2024-01-30T09:38:48;105.13;;;16.03;;
34134;SDS011;20410;55.578;12.968;2024-01-30T09:41:14;45.37;;;13.67;;
34134;SDS011;20410;55.578;12.968;2024-01-30T09:43:40;64.30;;;14.23;;
34134;SDS011;20410;55.578;12.968;2024-01-30T09:46:12;48.17;;;14.53;;
34134;SDS011;20410;55.578;12.968;2024-01-30T09:48:41;49.17;;;14.47;;
34134;SDS011;20410;55.578;12.968;2024-01-30T09:51:08;67.73;;;14.60;;
34134;SDS011;20410;55.578;12.968;2024-01-30T09:53:34;83.93;;;17.03;;
34134;SDS011;20410;55.578;12.968;2024-01-30T09:56:02;51.90;;;15.03;;
34134;SDS011;20410;55.578;12.968;2024-01-30T09:58:27;78.20;;;15.10;;
34134;SDS011;20410;55.578;12.968;2024-01-30T10:00:53;107.93;;;16.37;;
34134;SDS011;20410;55.578;12.968;2024-01-30T10:03:21;68.73;;;13.77;;
34134;SDS011;20410;55.578;12.968;2024-01-30T10:05:52;45.27;;;13.47;;
34134;SDS011;20410;55.578;12.968;2024-01-30T10:08:18;40.47;;;13.23;;
34134;SDS011;20410;55.578;12.968;2024-01-30T10:10:45;43.00;;;14.77;;
34134;SDS011;20410;55.578;12.968;2024-01-30T10:13:15;58.97;;;15.30;;
34134;SDS011;20410;55.578;12.968;2024-01-30T10:15:41;60.17;;;14.73;;
34134;SDS011;20410;55.578;12.968;2024-01-30T10:18:08;31.97;;;15.40;;
34134;SDS011;20410;55.578;12.968;2024-01-30T10:20:35;31.80;;;14.53;;
34134;SDS011;20410;55.578;12.968;2024-01-30T10:23:00;35.40;;;15.10;;
34134;SDS011;20410;55.578;12.968;2024-01-30T10:25:26;43.13;;;15.97;;
34134;SDS011;20410;55.578;12.968;2024-01-30T10:27:52;75.07;;;19.67;;
34134;SDS011;20410;55.578;12.968;2024-01-30T10:30:22;69.67;;;18.70;;
34134;SDS011;20410;55.578;12.968;2024-01-30T10:32:47;93.20;;;20.67;;
34134;SDS011;20410;55.578;12.968;2024-01-30T10:35:13;92.67;;;19.23;;
34134;SDS011;20410;55.578;12.968;2024-01-30T10:37:39;72.13;;;18.23;;
34134;SDS011;20410;55.578;12.968;2024-01-30T10:40:08;97.70;;;20.73;;
34134;SDS011;20410;55.578;12.968;2024-01-30T10:42:38;97.77;;;19.40;;
34134;SDS011;20410;55.578;12.968;2024-01-30T10:45:10;86.53;;;17.47;;
34134;SDS011;20410;55.578;12.968;2024-01-30T10:47:44;59.60;;;17.60;;
34134;SDS011;20410;55.578;12.968;2024-01-30T10:50:18;80.90;;;17.60;;
34134;SDS011;20410;55.578;12.968;2024-01-30T10:52:44;76.13;;;17.03;;
34134;SDS011;20410;55.578;12.968;2024-01-30T10:55:11;88.33;;;19.10;;
34134;SDS011;20410;55.578;12.968;2024-01-30T10:57:38;63.90;;;17.63;;
34134;SDS011;20410;55.578;12.968;2024-01-30T11:00:08;43.13;;;16.37;;
34134;SDS011;20410;55.578;12.968;2024-01-30T11:02:36;43.67;;;17.00;;
34134;SDS011;20410;55.578;12.968;2024-01-30T11:05:12;34.93;;;15.40;;
34134;SDS011;20410;55.578;12.968;2024-01-30T11:07:41;41.07;;;17.17;;
34134;SDS011;20410;55.578;12.968;2024-01-30T11:10:06;33.07;;;15.37;;
34134;SDS011;20410;55.578;12.968;2024-01-30T11:12:37;27.60;;;13.60;;
34134;SDS011;20410;55.578;12.968;2024-01-30T11:15:12;29.00;;;14.90;;
34134;SDS011;20410;55.578;12.968;2024-01-30T11:17:49;35.83;;;15.70;;
34134;SDS011;20410;55.578;12.968;2024-01-30T11:20:19;32.17;;;14.43;;
34134;SDS011;20410;55.578;12.968;2024-01-30T11:22:51;28.83;;;13.77;;
34134;SDS011;20410;55.578;12.968;2024-01-30T11:25:18;28.27;;;13.90;;
34134;SDS011;20410;55.578;12.968;2024-01-30T11:27:45;30.70;;;12.83;;
34134;SDS011;20410;55.578;12.968;2024-01-30T11:30:26;27.43;;;11.87;;
34134;SDS011;20410;55.578;12.968;2024-01-30T11:35:25;28.73;;;11.23;;
34134;SDS011;20410;55.578;12.968;2024-01-30T11:37:51;33.30;;;10.93;;
34134;SDS011;20410;55.578;12.968;2024-01-30T11:40:17;44.03;;;12.43;;
34134;SDS011;20410;55.578;12.968;2024-01-30T11:42:43;27.70;;;11.50;;
34134;SDS011;20410;55.578;12.968;2024-01-30T11:45:10;51.40;;;13.73;;
34134;SDS011;20410;55.578;12.968;2024-01-30T11:47:36;23.77;;;11.07;;
34134;SDS011;20410;55.578;12.968;2024-01-30T11:50:04;31.80;;;11.43;;
34134;SDS011;20410;55.578;12.968;2024-01-30T11:52:32;25.57;;;11.07;;
34134;SDS011;20410;55.578;12.968;2024-01-30T11:54:58;33.20;;;11.73;;
34134;SDS011;20410;55.578;12.968;2024-01-30T11:57:26;32.07;;;12.37;;
34134;SDS011;20410;55.578;12.968;2024-01-30T11:59:52;27.53;;;11.37;;
34134;SDS011;20410;55.578;12.968;2024-01-30T12:02:17;40.63;;;12.27;;
34134;SDS011;20410;55.578;12.968;2024-01-30T12:04:43;47.33;;;13.47;;
34134;SDS011;20410;55.578;12.968;2024-01-30T12:07:09;54.53;;;12.90;;
34134;SDS011;20410;55.578;12.968;2024-01-30T12:09:35;32.00;;;11.97;;
34134;SDS011;20410;55.578;12.968;2024-01-30T12:12:00;37.00;;;12.37;;
34134;SDS011;20410;55.578;12.968;2024-01-30T12:14:26;47.47;;;13.50;;
34134;SDS011;20410;55.578;12.968;2024-01-30T12:16:52;34.43;;;12.77;;
34134;SDS011;20410;55.578;12.968;2024-01-30T12:19:24;40.57;;;13.07;;
34134;SDS011;20410;55.578;12.968;2024-01-30T12:21:53;62.07;;;12.73;;
34134;SDS011;20410;55.578;12.968;2024-01-30T12:24:25;42.80;;;13.07;;
34134;SDS011;20410;55.578;12.968;2024-01-30T12:26:58;58.17;;;13.43;;
34134;SDS011;20410;55.578;12.968;2024-01-30T12:29:24;53.63;;;13.33;;
34134;SDS011;20410;55.578;12.968;2024-01-30T12:31:52;31.20;;;12.43;;
34134;SDS011;20410;55.578;12.968;2024-01-30T12:34:18;24.50;;;11.27;;
34134;SDS011;20410;55.578;12.968;2024-01-30T12:36:46;38.07;;;12.80;;
34134;SDS011;20410;55.578;12.968;2024-01-30T12:39:13;35.20;;;11.87;;
34134;SDS011;20410;55.578;12.968;2024-01-30T12:41:40;24.20;;;11.30;;
34134;SDS011;20410;55.578;12.968;2024-01-30T12:44:05;27.77;;;13.03;;
34134;SDS011;20410;55.578;12.968;2024-01-30T12:46:32;29.03;;;13.00;;
34134;SDS011;20410;55.578;12.968;2024-01-30T12:48:59;28.17;;;14.43;;
34134;SDS011;20410;55.578;12.968;2024-01-30T12:51:25;24.83;;;13.57;;
34134;SDS011;20410;55.578;12.968;2024-01-30T12:53:50;27.60;;;14.43;;
34134;SDS011;20410;55.578;12.968;2024-01-30T12:56:16;31.20;;;14.37;;
34134;SDS011;20410;55.578;12.968;2024-01-30T12:58:41;22.50;;;13.83;;
34134;SDS011;20410;55.578;12.968;2024-01-30T13:01:08;26.87;;;14.07;;
34134;SDS011;20410;55.578;12.968;2024-01-30T13:03:34;26.90;;;14.90;;
34134;SDS011;20410;55.578;12.968;2024-01-30T13:06:00;22.03;;;14.03;;
34134;SDS011;20410;55.578;12.968;2024-01-30T13:08:25;24.70;;;14.10;;
34134;SDS011;20410;55.578;12.968;2024-01-30T13:10:51;25.03;;;15.50;;
34134;SDS011;20410;55.578;12.968;2024-01-30T13:13:16;21.70;;;14.13;;
34134;SDS011;20410;55.578;12.968;2024-01-30T13:15:42;20.67;;;13.70;;
34134;SDS011;20410;55.578;12.968;2024-01-30T13:18:07;23.80;;;14.70;;
34134;SDS011;20410;55.578;12.968;2024-01-30T13:20:33;22.83;;;14.23;;
34134;SDS011;20410;55.578;12.968;2024-01-30T13:22:59;23.77;;;14.50;;
34134;SDS011;20410;55.578;12.968;2024-01-30T13:25:24;25.50;;;15.93;;
34134;SDS011;20410;55.578;12.968;2024-01-30T13:27:50;25.37;;;14.80;;
34134;SDS011;20410;55.578;12.968;2024-01-30T13:30:15;21.03;;;14.27;;
34134;SDS011;20410;55.578;12.968;2024-01-30T13:32:41;19.53;;;13.67;;
34134;SDS011;20410;55.578;12.968;2024-01-30T13:35:09;21.77;;;13.93;;
34134;SDS011;20410;55.578;12.968;2024-01-30T13:37:34;19.97;;;13.87;;
34134;SDS011;20410;55.578;12.968;2024-01-30T13:40:02;20.97;;;13.70;;
34134;SDS011;20410;55.578;12.968;2024-01-30T13:42:31;17.23;;;13.10;;
34134;SDS011;20410;55.578;12.968;2024-01-30T13:44:57;16.97;;;12.93;;
34134;SDS011;20410;55.578;12.968;2024-01-30T13:47:22;17.30;;;12.83;;
34134;SDS011;20410;55.578;12.968;2024-01-30T13:49:48;18.30;;;12.90;;
34134;SDS011;20410;55.578;12.968;2024-01-30T13:52:14;16.43;;;12.53;;
34134;SDS011;20410;55.578;12.968;2024-01-30T13:54:39;15.23;;;12.37;;
34134;SDS011;20410;55.578;12.968;2024-01-30T13:57:05;16.10;;;13.13;;
34134;SDS011;20410;55.578;12.968;2024-01-30T13:59:32;16.73;;;13.13;;
34134;SDS011;20410;55.578;12.968;2024-01-30T14:01:58;18.40;;;13.67;;
34134;SDS011;20410;55.578;12.968;2024-01-30T14:04:23;18.37;;;13.17;;